createdAt,value
2023-08-17T00:01:35.243Z,5.57
2023-08-17T00:04:42.249Z,5.30
2023-08-17T00:07:51.228Z,5.38
2023-08-17T00:10:58.231Z,4.72
2023-08-17T00:14:04.244Z,4.60
2023-08-17T00:17:12.254Z,5.65
2023-08-17T00:20:20.248Z,4.80
2023-08-17T00:23:30.230Z,5.72
2023-08-17T00:26:41.200Z,6.20
2023-08-17T00:29:47.250Z,5.80
2023-08-17T00:32:55.311Z,5.07
2023-08-17T00:36:02.267Z,5.47
2023-08-17T00:39:12.259Z,5.90
2023-08-17T00:42:19.262Z,5.93
2023-08-17T00:45:29.258Z,5.40
2023-08-17T00:48:40.259Z,5.40
2023-08-17T00:51:49.345Z,5.03
2023-08-17T00:54:59.403Z,4.50
2023-08-17T00:58:05.262Z,4.30
2023-08-17T01:01:14.285Z,4.68
2023-08-17T01:04:22.248Z,3.40
2023-08-17T01:07:28.811Z,3.80
2023-08-17T01:10:41.305Z,3.22
2023-08-17T01:14:02.295Z,4.00
2023-08-17T01:17:12.289Z,3.20
2023-08-17T01:20:19.442Z,4.15
2023-08-17T01:23:28.278Z,4.00
2023-08-17T01:26:34.278Z,4.47
2023-08-17T01:29:40.295Z,4.43
2023-08-17T01:32:48.310Z,4.30
2023-08-17T01:35:57.378Z,4.00
2023-08-17T01:39:09.329Z,3.90
2023-08-17T01:42:21.316Z,3.88
2023-08-17T01:45:29.286Z,3.80
2023-08-17T01:48:44.290Z,3.80
2023-08-17T01:51:50.299Z,3.95
2023-08-17T01:54:58.294Z,3.60
2023-08-17T01:58:06.324Z,3.63
2023-08-17T02:01:14.346Z,3.05
2023-08-17T02:04:20.304Z,3.30
2023-08-17T02:07:27.569Z,2.97
2023-08-17T02:10:37.307Z,2.60
2023-08-17T02:13:46.351Z,2.80
2023-08-17T02:16:52.748Z,2.78
2023-08-17T02:20:07.002Z,2.80
2023-08-17T02:23:17.348Z,2.80
2023-08-17T02:26:27.527Z,2.40
2023-08-17T02:29:35.323Z,2.10
2023-08-17T02:32:44.396Z,1.85
2023-08-17T02:35:52.336Z,1.88
2023-08-17T02:38:59.356Z,2.10
2023-08-17T02:42:12.348Z,1.85
2023-08-17T02:45:20.408Z,1.95
2023-08-17T02:48:29.456Z,2.08
2023-08-17T02:51:39.426Z,2.10
2023-08-17T02:54:47.325Z,2.10
2023-08-17T02:57:58.402Z,2.28
2023-08-17T03:01:05.341Z,2.08
2023-08-17T03:04:11.322Z,2.15
2023-08-17T03:07:18.313Z,2.03
2023-08-17T03:10:25.341Z,1.77
2023-08-17T03:13:33.399Z,2.10
2023-08-17T03:16:41.347Z,1.95
2023-08-17T03:19:53.337Z,1.70
2023-08-17T03:23:02.363Z,1.80
2023-08-17T03:26:10.364Z,2.15
2023-08-17T03:29:23.409Z,1.90
2023-08-17T03:32:31.382Z,1.85
2023-08-17T03:35:39.382Z,1.90
2023-08-17T03:38:47.382Z,2.08
2023-08-17T03:41:56.341Z,1.88
2023-08-17T03:45:04.360Z,2.08
2023-08-17T03:48:12.371Z,2.00
2023-08-17T03:51:19.374Z,1.90
2023-08-17T03:54:26.384Z,1.60
2023-08-17T03:57:34.512Z,1.70
2023-08-17T04:00:42.367Z,2.17
2023-08-17T04:03:50.393Z,1.90
2023-08-17T04:06:59.264Z,1.80
2023-08-17T04:10:09.390Z,1.92
2023-08-17T04:13:16.394Z,2.15
2023-08-17T04:16:25.454Z,2.05
2023-08-17T04:19:32.453Z,2.13
2023-08-17T04:22:38.429Z,1.90
2023-08-17T04:25:44.412Z,2.00
2023-08-17T04:28:52.439Z,2.08
2023-08-17T04:32:01.383Z,1.77
2023-08-17T04:35:08.373Z,2.08
2023-08-17T04:38:15.390Z,2.78
2023-08-17T04:41:23.375Z,2.20
2023-08-17T04:44:30.414Z,1.70
2023-08-17T04:47:41.432Z,2.22
2023-08-17T04:50:51.392Z,1.67
2023-08-17T04:53:58.413Z,1.50
2023-08-17T04:57:06.468Z,1.60
2023-08-17T05:00:18.392Z,1.45
2023-08-17T05:03:33.834Z,1.30
2023-08-17T05:06:41.421Z,1.27
2023-08-17T05:09:51.432Z,1.50
2023-08-17T05:12:58.441Z,1.50
2023-08-17T05:16:08.496Z,1.60
2023-08-17T05:19:17.417Z,1.33
2023-08-17T05:22:24.473Z,1.35
2023-08-17T05:25:31.444Z,1.40
2023-08-17T05:28:38.479Z,1.50
2023-08-17T05:31:45.434Z,1.30
2023-08-17T05:34:53.452Z,1.30
2023-08-17T05:38:01.449Z,1.20
2023-08-17T05:41:14.691Z,1.10
2023-08-17T05:44:25.443Z,1.20
2023-08-17T05:47:31.493Z,1.30
2023-08-17T05:50:41.447Z,1.20
2023-08-17T05:53:47.522Z,1.20
2023-08-17T05:56:56.449Z,1.35
2023-08-17T06:00:03.439Z,1.08
2023-08-17T06:03:12.574Z,1.20
2023-08-17T06:06:22.511Z,1.30
2023-08-17T06:09:28.471Z,1.40
2023-08-17T06:12:36.488Z,1.40
2023-08-17T06:15:43.462Z,1.23
2023-08-17T06:18:50.472Z,1.20
2023-08-17T06:22:07.342Z,1.13
2023-08-17T06:25:15.506Z,1.23
2023-08-17T06:28:25.509Z,1.10
2023-08-17T06:31:36.444Z,1.08
2023-08-17T06:34:47.439Z,1.17
2023-08-17T06:38:07.479Z,1.23
2023-08-17T06:41:29.582Z,1.30
2023-08-17T06:44:53.462Z,1.10
2023-08-17T06:48:01.621Z,1.10
2023-08-17T06:51:12.503Z,1.20
2023-08-17T06:54:20.493Z,1.20
2023-08-17T06:57:27.761Z,1.40
2023-08-17T07:00:36.490Z,1.30
2023-08-17T07:03:43.482Z,1.25
2023-08-17T07:06:51.500Z,1.40
2023-08-17T07:10:02.496Z,1.10
2023-08-17T07:13:12.515Z,1.25
2023-08-17T07:16:20.556Z,1.20
2023-08-17T07:19:46.212Z,1.20
2023-08-17T07:23:00.930Z,1.35
2023-08-17T07:26:11.375Z,1.13
2023-08-17T07:29:22.543Z,1.23
2023-08-17T07:32:31.600Z,1.13
2023-08-17T07:35:39.502Z,1.20
2023-08-17T07:38:47.648Z,1.10
2023-08-17T07:41:59.541Z,1.10
2023-08-17T07:45:10.531Z,1.10
2023-08-17T07:48:18.930Z,1.10
2023-08-17T07:51:25.583Z,1.25
2023-08-17T07:54:35.644Z,1.38
2023-08-17T07:57:47.542Z,1.30
2023-08-17T08:00:57.599Z,1.30
2023-08-17T08:04:03.664Z,1.20
2023-08-17T08:07:11.570Z,1.15
2023-08-17T08:10:26.157Z,1.10
2023-08-17T08:13:36.544Z,1.30
2023-08-17T08:16:44.593Z,1.23
2023-08-17T08:19:51.544Z,1.25
2023-08-17T08:22:59.967Z,1.25
2023-08-17T08:26:07.562Z,1.60
2023-08-17T08:29:16.534Z,2.80
2023-08-17T08:32:28.530Z,2.80
2023-08-17T08:35:40.649Z,2.00
2023-08-17T08:38:49.580Z,1.90
2023-08-17T08:41:57.565Z,1.80
2023-08-17T08:45:09.569Z,2.20
2023-08-17T08:48:21.621Z,1.85
2023-08-17T08:51:30.568Z,1.83
2023-08-17T08:54:41.531Z,1.90
2023-08-17T08:57:51.733Z,1.50
2023-08-17T09:01:02.573Z,1.52
2023-08-17T09:04:09.577Z,1.50
2023-08-17T09:07:17.601Z,1.60
2023-08-17T09:10:29.443Z,1.52
2023-08-17T09:13:42.500Z,1.40
2023-08-17T09:16:52.753Z,1.40
2023-08-17T09:20:07.834Z,1.35
2023-08-17T09:23:24.645Z,1.63
2023-08-17T09:26:33.720Z,1.40
2023-08-17T09:29:46.834Z,1.88
2023-08-17T09:32:55.640Z,1.70
2023-08-17T09:36:03.649Z,1.75
2023-08-17T09:39:17.197Z,1.63
2023-08-17T09:42:33.366Z,1.48
2023-08-17T09:45:41.800Z,1.40
2023-08-17T09:48:52.732Z,1.55
2023-08-17T09:52:04.648Z,1.85
2023-08-17T09:55:16.604Z,1.67
2023-08-17T09:58:30.931Z,1.45
2023-08-17T10:01:41.601Z,1.40
2023-08-17T10:04:53.770Z,1.65
2023-08-17T10:08:06.509Z,1.70
2023-08-17T10:11:13.669Z,1.48
2023-08-17T10:14:21.767Z,1.50
2023-08-17T10:17:31.629Z,1.50
2023-08-17T10:20:46.435Z,1.45
2023-08-17T10:23:56.646Z,1.20
2023-08-17T10:27:04.631Z,1.30
2023-08-17T10:30:10.673Z,1.38
2023-08-17T10:33:16.663Z,1.42
2023-08-17T10:36:27.645Z,1.30
2023-08-17T10:39:48.628Z,1.50
2023-08-17T10:42:55.646Z,1.73
2023-08-17T10:46:02.651Z,1.50
2023-08-17T10:49:10.660Z,1.60
2023-08-17T10:52:27.182Z,2.05
2023-08-17T10:55:36.645Z,1.88
2023-08-17T10:58:47.705Z,1.70
2023-08-17T11:01:58.961Z,2.10
2023-08-17T11:05:13.773Z,2.15
2023-08-17T11:08:29.813Z,2.50
2023-08-17T11:11:38.703Z,2.20
2023-08-17T11:14:50.650Z,2.60
2023-08-17T11:17:59.719Z,2.17
2023-08-17T11:21:09.912Z,2.40
2023-08-17T11:24:19.782Z,2.13
2023-08-17T11:27:30.955Z,2.05
2023-08-17T11:30:41.209Z,2.20
2023-08-17T11:33:56.556Z,2.50
2023-08-17T11:37:05.463Z,2.10
2023-08-17T11:40:16.910Z,2.58
2023-08-17T11:43:32.750Z,2.15
2023-08-17T11:46:39.675Z,2.20
2023-08-17T11:49:48.659Z,2.17
2023-08-17T11:52:55.800Z,2.40
2023-08-17T11:56:11.195Z,2.60
2023-08-17T11:59:31.807Z,2.45
2023-08-17T12:02:39.863Z,2.80
2023-08-17T12:05:52.890Z,2.33
2023-08-17T12:09:09.574Z,2.90
2023-08-17T12:12:25.065Z,2.90
2023-08-17T12:15:32.756Z,2.70
2023-08-17T12:18:41.014Z,2.78
2023-08-17T12:21:47.722Z,2.60
2023-08-17T12:24:56.702Z,3.15
2023-08-17T12:28:05.855Z,2.90
2023-08-17T12:31:19.726Z,3.00
2023-08-17T12:34:28.789Z,3.10
2023-08-17T12:37:39.756Z,3.30
2023-08-17T12:40:46.732Z,3.30
2023-08-17T12:44:03.800Z,3.33
2023-08-17T12:47:12.749Z,3.67
2023-08-17T12:50:20.787Z,3.60
2023-08-17T12:53:27.802Z,3.38
2023-08-17T12:56:34.702Z,3.78
2023-08-17T12:59:46.841Z,4.03
2023-08-17T13:02:54.754Z,4.10
2023-08-17T13:06:00.726Z,4.13
2023-08-17T13:09:09.755Z,4.30
2023-08-17T13:12:28.994Z,4.55
2023-08-17T13:15:40.697Z,4.20
2023-08-17T13:18:52.768Z,4.70
2023-08-17T13:21:58.750Z,4.70
2023-08-17T13:25:05.739Z,4.57
2023-08-17T13:28:13.726Z,4.95
2023-08-17T13:31:25.092Z,5.30
2023-08-17T13:34:32.768Z,4.80
2023-08-17T13:37:39.788Z,4.75
2023-08-17T13:40:47.728Z,5.07
2023-08-17T13:43:58.203Z,4.80
2023-08-17T13:47:10.750Z,5.10
2023-08-17T13:50:18.758Z,4.78
2023-08-17T13:53:24.881Z,5.10
2023-08-17T13:56:31.816Z,5.50
2023-08-17T13:59:44.471Z,5.10
2023-08-17T14:02:52.886Z,5.40
2023-08-17T14:06:07.460Z,4.93
2023-08-17T14:09:18.605Z,5.40
2023-08-17T14:12:25.081Z,5.28
2023-08-17T14:15:35.782Z,5.45
2023-08-17T14:18:43.786Z,5.53
2023-08-17T14:21:50.781Z,5.15
2023-08-17T14:24:56.822Z,5.47
2023-08-17T14:28:03.806Z,5.65
2023-08-17T14:31:10.811Z,6.03
2023-08-17T14:34:21.762Z,5.97
2023-08-17T14:37:31.784Z,5.70
2023-08-17T14:40:42.930Z,6.40
2023-08-17T14:43:52.713Z,6.32
2023-08-17T14:47:02.793Z,6.63
2023-08-17T14:50:10.797Z,6.10
2023-08-17T14:53:19.908Z,6.43
2023-08-17T14:56:33.352Z,6.05
2023-08-17T14:59:43.833Z,6.53
2023-08-17T15:02:53.852Z,6.70
2023-08-17T15:06:01.781Z,6.45
2023-08-17T15:09:08.782Z,6.00
2023-08-17T15:12:15.769Z,6.80
2023-08-17T15:15:22.849Z,6.43
2023-08-17T15:18:28.784Z,6.20
2023-08-17T15:21:40.812Z,4.00
2023-08-17T15:24:47.809Z,5.47
2023-08-17T15:27:58.866Z,4.53
2023-08-17T15:31:09.876Z,4.97
2023-08-17T15:34:19.841Z,5.15
2023-08-17T15:37:27.486Z,5.20
2023-08-17T15:40:34.932Z,5.50
2023-08-17T15:43:42.820Z,5.07
2023-08-17T15:46:50.830Z,5.07
2023-08-17T15:49:57.814Z,5.18
2023-08-17T15:53:06.823Z,4.95
2023-08-17T15:56:14.844Z,4.13
2023-08-17T15:59:30.963Z,4.00
2023-08-17T16:02:41.539Z,3.88
2023-08-17T16:05:47.820Z,4.35
2023-08-17T16:08:55.840Z,3.53
2023-08-17T16:12:02.870Z,3.53
2023-08-17T16:15:09.839Z,3.78
2023-08-17T16:18:16.852Z,3.80
2023-08-17T16:21:26.764Z,3.50
2023-08-17T16:24:35.811Z,3.75
2023-08-17T16:27:42.875Z,3.80
2023-08-17T16:30:49.810Z,3.90
2023-08-17T16:33:57.918Z,3.90
2023-08-17T16:37:03.865Z,4.75
2023-08-17T16:40:20.926Z,4.53
2023-08-17T16:43:39.829Z,4.63
2023-08-17T16:46:45.854Z,5.43
2023-08-17T16:49:51.852Z,5.90
2023-08-17T16:52:58.882Z,5.63
2023-08-17T16:56:06.837Z,6.00
2023-08-17T16:59:16.884Z,6.00
2023-08-17T17:02:23.835Z,6.30
2023-08-17T17:05:31.938Z,6.20
2023-08-17T17:08:37.864Z,6.65
2023-08-17T17:11:47.891Z,6.43
2023-08-17T17:14:54.914Z,6.93
2023-08-17T17:18:02.993Z,6.20
2023-08-17T17:21:09.904Z,6.47
2023-08-17T17:24:19.498Z,6.05
2023-08-17T17:27:29.976Z,6.43
2023-08-17T17:30:37.905Z,5.70
2023-08-17T17:33:44.877Z,5.60
2023-08-17T17:36:52.006Z,5.00
2023-08-17T17:40:07.697Z,4.97
2023-08-17T17:43:17.026Z,3.60
2023-08-17T17:46:23.949Z,4.78
2023-08-17T17:49:30.940Z,4.43
2023-08-17T17:52:38.942Z,4.05
2023-08-17T17:55:44.918Z,3.65
2023-08-17T17:58:52.877Z,3.22
2023-08-17T18:01:58.950Z,2.80
2023-08-17T18:05:07.970Z,3.13
2023-08-17T18:08:14.914Z,2.85
2023-08-17T18:11:21.078Z,3.10
2023-08-17T18:14:30.888Z,3.10
2023-08-17T18:17:38.022Z,3.95
2023-08-17T18:20:50.016Z,5.18
2023-08-17T18:23:59.113Z,5.20
2023-08-17T18:27:08.062Z,5.75
2023-08-17T18:30:20.111Z,6.32
2023-08-17T18:33:29.919Z,8.15
2023-08-17T18:36:49.798Z,8.95
2023-08-17T18:40:13.966Z,8.75
2023-08-17T18:43:26.031Z,7.90
2023-08-17T18:46:41.907Z,8.60
2023-08-17T18:49:49.024Z,8.60
2023-08-17T18:53:15.997Z,8.98
2023-08-17T18:56:42.013Z,8.73
2023-08-17T18:59:51.287Z,8.63
2023-08-17T19:03:02.312Z,9.60
2023-08-17T19:06:13.962Z,9.35
2023-08-17T19:09:19.949Z,9.55
2023-08-17T19:12:30.981Z,9.00
2023-08-17T19:15:40.015Z,9.50
2023-08-17T19:18:51.953Z,10.45
2023-08-17T19:22:01.021Z,9.93
2023-08-17T19:25:11.969Z,10.20
2023-08-17T19:28:24.031Z,10.45
2023-08-17T19:31:32.075Z,9.95
2023-08-17T19:35:03.060Z,10.30
2023-08-17T19:38:13.161Z,9.77
2023-08-17T19:41:24.028Z,9.50
2023-08-17T19:44:38.416Z,9.75
2023-08-17T19:47:47.178Z,9.77
2023-08-17T19:50:55.078Z,9.25
2023-08-17T19:54:03.193Z,9.65
2023-08-17T19:57:11.070Z,9.30
2023-08-17T20:00:19.196Z,9.32
2023-08-17T20:03:30.105Z,8.85
2023-08-17T20:06:40.025Z,8.90
2023-08-17T20:09:48.303Z,7.50
2023-08-17T20:12:57.026Z,7.70
2023-08-17T20:16:05.206Z,6.72
2023-08-17T20:19:13.247Z,6.20
2023-08-17T20:22:22.857Z,6.32
2023-08-17T20:25:46.961Z,5.43
2023-08-17T20:29:00.049Z,5.78
2023-08-17T20:32:08.188Z,5.40
2023-08-17T20:35:17.086Z,4.60
2023-08-17T20:38:29.143Z,4.72
2023-08-17T20:41:38.093Z,4.90
2023-08-17T20:44:49.179Z,4.50
2023-08-17T20:48:04.231Z,3.00
2023-08-17T20:51:19.222Z,2.58
2023-08-17T20:54:27.022Z,3.17
2023-08-17T20:58:05.170Z,3.00
2023-08-17T21:01:19.141Z,2.72
2023-08-17T21:04:31.220Z,2.80
2023-08-17T21:07:38.159Z,2.60
2023-08-17T21:10:45.183Z,2.75
2023-08-17T21:14:06.316Z,2.30
2023-08-17T21:17:16.108Z,2.22
2023-08-17T21:20:26.254Z,2.30
2023-08-17T21:23:47.737Z,2.20
2023-08-17T21:27:00.277Z,2.00
2023-08-17T21:30:15.566Z,2.00
2023-08-17T21:33:28.250Z,2.28
2023-08-17T21:36:36.185Z,2.08
2023-08-17T21:39:46.258Z,2.10
2023-08-17T21:42:56.440Z,2.15
2023-08-17T21:46:04.070Z,1.90
2023-08-17T21:49:17.285Z,2.05
2023-08-17T21:52:25.095Z,2.00
2023-08-17T21:55:31.068Z,1.77
2023-08-17T21:58:38.094Z,2.10
2023-08-17T22:01:46.063Z,1.60
2023-08-17T22:04:58.956Z,1.92
2023-08-17T22:08:11.248Z,1.90
2023-08-17T22:11:20.197Z,1.60
2023-08-17T22:14:30.216Z,1.90
2023-08-17T22:17:38.335Z,1.80
2023-08-17T22:20:50.113Z,1.75
2023-08-17T22:23:59.090Z,2.00
2023-08-17T22:27:06.050Z,1.60
2023-08-17T22:30:12.603Z,1.55
2023-08-17T22:33:22.582Z,1.85
2023-08-17T22:36:33.107Z,1.83
2023-08-17T22:39:39.356Z,1.65
2023-08-17T22:42:48.123Z,1.67
2023-08-17T22:45:55.185Z,1.67
2023-08-17T22:49:03.093Z,1.80
2023-08-17T22:52:12.068Z,1.67
2023-08-17T22:55:21.218Z,1.40
2023-08-17T22:58:30.163Z,1.50
2023-08-17T23:01:40.161Z,1.40
2023-08-17T23:04:48.092Z,1.40
2023-08-17T23:07:59.376Z,1.10
2023-08-17T23:11:07.125Z,1.20
2023-08-17T23:14:19.153Z,1.10
2023-08-17T23:17:57.457Z,1.30
2023-08-17T23:21:09.117Z,1.15
2023-08-17T23:24:19.128Z,1.00
2023-08-17T23:27:27.599Z,0.90
2023-08-17T23:30:38.191Z,1.10
2023-08-17T23:33:52.970Z,1.10
2023-08-17T23:37:04.890Z,1.20
2023-08-17T23:40:16.203Z,0.90
2023-08-17T23:43:23.163Z,1.10
2023-08-17T23:46:30.192Z,0.90
2023-08-17T23:49:40.593Z,0.70
2023-08-17T23:52:51.926Z,1.00
2023-08-17T23:56:01.118Z,0.80
2023-08-17T23:59:08.132Z,0.57
